sensor_id;sensor_type;location;lat;lon;timestamp;temperature;humidity
123;DHT22;57;48.948;9.098;2022-07-04T00:01:32;22.90;1.00
123;DHT22;57;48.948;9.098;2022-07-04T00:04:01;23.00;1.00
123;DHT22;57;48.948;9.098;2022-07-04T00:06:29;22.90;1.00
123;DHT22;57;48.948;9.098;2022-07-04T00:08:55;22.80;1.00
123;DHT22;57;48.948;9.098;2022-07-04T00:11:20;22.70;1.00
123;DHT22;57;48.948;9.098;2022-07-04T00:13:49;22.70;1.00
123;DHT22;57;48.948;9.098;2022-07-04T00:16:15;22.70;1.00
123;DHT22;57;48.948;9.098;2022-07-04T00:18:41;22.90;1.00
123;DHT22;57;48.948;9.098;2022-07-04T00:21:06;22.80;1.00
123;DHT22;57;48.948;9.098;2022-07-04T00:23:35;23.00;1.00
123;DHT22;57;48.948;9.098;2022-07-04T00:26:01;22.90;1.00
123;DHT22;57;48.948;9.098;2022-07-04T00:28:27;22.90;1.00
123;DHT22;57;48.948;9.098;2022-07-04T00:30:53;23.10;1.00
123;DHT22;57;48.948;9.098;2022-07-04T00:33:18;23.10;1.00
123;DHT22;57;48.948;9.098;2022-07-04T00:35:44;23.10;1.00
123;DHT22;57;48.948;9.098;2022-07-04T00:38:10;22.70;1.00
123;DHT22;57;48.948;9.098;2022-07-04T00:40:37;22.50;1.00
123;DHT22;57;48.948;9.098;2022-07-04T00:43:03;22.50;1.00
123;DHT22;57;48.948;9.098;2022-07-04T00:45:29;22.60;1.00
123;DHT22;57;48.948;9.098;2022-07-04T00:47:55;22.60;1.00
123;DHT22;57;48.948;9.098;2022-07-04T00:50:21;22.60;1.00
123;DHT22;57;48.948;9.098;2022-07-04T00:52:47;22.50;1.00
123;DHT22;57;48.948;9.098;2022-07-04T00:55:15;22.50;1.00
123;DHT22;57;48.948;9.098;2022-07-04T00:57:42;22.30;1.00
123;DHT22;57;48.948;9.098;2022-07-04T01:00:11;22.30;1.00
123;DHT22;57;48.948;9.098;2022-07-04T01:02:37;22.30;1.00
123;DHT22;57;48.948;9.098;2022-07-04T01:05:03;22.10;1.00
123;DHT22;57;48.948;9.098;2022-07-04T01:07:29;22.20;1.00
123;DHT22;57;48.948;9.098;2022-07-04T01:09:55;22.20;1.00
123;DHT22;57;48.948;9.098;2022-07-04T01:12:27;22.20;1.00
123;DHT22;57;48.948;9.098;2022-07-04T01:14:55;22.30;1.00
123;DHT22;57;48.948;9.098;2022-07-04T01:17:21;22.30;1.00
123;DHT22;57;48.948;9.098;2022-07-04T01:19:46;22.30;1.00
123;DHT22;57;48.948;9.098;2022-07-04T01:22:14;22.40;1.00
123;DHT22;57;48.948;9.098;2022-07-04T01:24:39;22.30;1.00
123;DHT22;57;48.948;9.098;2022-07-04T01:27:05;22.20;1.00
123;DHT22;57;48.948;9.098;2022-07-04T01:29:31;22.10;1.00
123;DHT22;57;48.948;9.098;2022-07-04T01:31:58;21.90;1.00
123;DHT22;57;48.948;9.098;2022-07-04T01:34:28;22.00;1.00
123;DHT22;57;48.948;9.098;2022-07-04T01:36:54;21.90;1.00
123;DHT22;57;48.948;9.098;2022-07-04T01:39:21;22.10;1.00
123;DHT22;57;48.948;9.098;2022-07-04T01:41:47;22.00;1.00
123;DHT22;57;48.948;9.098;2022-07-04T01:44:15;21.90;1.00
123;DHT22;57;48.948;9.098;2022-07-04T01:46:41;21.60;1.00
123;DHT22;57;48.948;9.098;2022-07-04T01:49:07;21.80;1.00
123;DHT22;57;48.948;9.098;2022-07-04T01:51:32;22.00;1.00
123;DHT22;57;48.948;9.098;2022-07-04T01:53:58;22.10;1.00
123;DHT22;57;48.948;9.098;2022-07-04T01:56:28;22.20;1.00
123;DHT22;57;48.948;9.098;2022-07-04T01:58:53;22.30;1.00
123;DHT22;57;48.948;9.098;2022-07-04T02:01:19;22.10;1.00
123;DHT22;57;48.948;9.098;2022-07-04T02:03:45;22.20;1.00
123;DHT22;57;48.948;9.098;2022-07-04T02:06:11;22.30;1.00
123;DHT22;57;48.948;9.098;2022-07-04T02:08:36;22.40;1.00
123;DHT22;57;48.948;9.098;2022-07-04T02:11:02;22.50;1.00
123;DHT22;57;48.948;9.098;2022-07-04T02:13:29;22.50;1.00
123;DHT22;57;48.948;9.098;2022-07-04T02:15:55;22.50;1.00
123;DHT22;57;48.948;9.098;2022-07-04T02:18:21;22.30;1.00
123;DHT22;57;48.948;9.098;2022-07-04T02:20:46;22.30;1.00
123;DHT22;57;48.948;9.098;2022-07-04T02:23:12;22.40;1.00
123;DHT22;57;48.948;9.098;2022-07-04T02:25:38;22.50;1.00
123;DHT22;57;48.948;9.098;2022-07-04T02:28:04;22.40;1.00
123;DHT22;57;48.948;9.098;2022-07-04T02:30:31;22.20;1.00
123;DHT22;57;48.948;9.098;2022-07-04T02:32:57;22.20;1.00
123;DHT22;57;48.948;9.098;2022-07-04T02:35:22;22.30;1.00
123;DHT22;57;48.948;9.098;2022-07-04T02:37:48;22.20;1.00
123;DHT22;57;48.948;9.098;2022-07-04T02:40:14;22.10;1.00
123;DHT22;57;48.948;9.098;2022-07-04T02:42:43;22.00;1.00
123;DHT22;57;48.948;9.098;2022-07-04T02:45:09;22.00;1.00
123;DHT22;57;48.948;9.098;2022-07-04T02:47:36;21.90;1.00
123;DHT22;57;48.948;9.098;2022-07-04T02:50:04;21.80;1.00
123;DHT22;57;48.948;9.098;2022-07-04T02:52:30;21.80;1.00
123;DHT22;57;48.948;9.098;2022-07-04T02:54:56;21.70;1.00
123;DHT22;57;48.948;9.098;2022-07-04T02:57:22;21.40;1.00
123;DHT22;57;48.948;9.098;2022-07-04T02:59:47;21.30;1.00
123;DHT22;57;48.948;9.098;2022-07-04T03:02:14;21.40;1.00
123;DHT22;57;48.948;9.098;2022-07-04T03:04:43;21.30;1.00
123;DHT22;57;48.948;9.098;2022-07-04T03:07:09;21.30;1.00
123;DHT22;57;48.948;9.098;2022-07-04T03:09:35;21.10;1.00
123;DHT22;57;48.948;9.098;2022-07-04T03:12:01;20.90;1.00
123;DHT22;57;48.948;9.098;2022-07-04T03:14:26;20.90;1.00
123;DHT22;57;48.948;9.098;2022-07-04T03:16:54;21.00;1.00
123;DHT22;57;48.948;9.098;2022-07-04T03:19:20;20.80;1.00
123;DHT22;57;48.948;9.098;2022-07-04T03:21:47;20.80;1.00
123;DHT22;57;48.948;9.098;2022-07-04T03:24:12;20.80;1.00
123;DHT22;57;48.948;9.098;2022-07-04T03:26:38;20.90;1.00
123;DHT22;57;48.948;9.098;2022-07-04T03:29:04;21.00;1.00
123;DHT22;57;48.948;9.098;2022-07-04T03:31:33;21.20;1.00
123;DHT22;57;48.948;9.098;2022-07-04T03:33:59;21.30;1.00
123;DHT22;57;48.948;9.098;2022-07-04T03:36:26;21.20;1.00
123;DHT22;57;48.948;9.098;2022-07-04T03:38:53;21.10;1.00
123;DHT22;57;48.948;9.098;2022-07-04T03:41:19;21.00;1.00
123;DHT22;57;48.948;9.098;2022-07-04T03:43:45;21.00;1.00
123;DHT22;57;48.948;9.098;2022-07-04T03:46:10;21.00;1.00
123;DHT22;57;48.948;9.098;2022-07-04T03:48:36;21.10;1.00
123;DHT22;57;48.948;9.098;2022-07-04T03:51:02;21.00;1.00
123;DHT22;57;48.948;9.098;2022-07-04T03:53:28;21.10;1.00
123;DHT22;57;48.948;9.098;2022-07-04T03:55:56;21.20;1.00
123;DHT22;57;48.948;9.098;2022-07-04T03:58:21;21.10;1.00
123;DHT22;57;48.948;9.098;2022-07-04T04:00:47;21.20;1.00
123;DHT22;57;48.948;9.098;2022-07-04T04:03:13;20.90;1.00
123;DHT22;57;48.948;9.098;2022-07-04T04:05:39;21.00;1.00
123;DHT22;57;48.948;9.098;2022-07-04T04:08:04;21.00;1.00
123;DHT22;57;48.948;9.098;2022-07-04T04:10:33;21.10;1.00
123;DHT22;57;48.948;9.098;2022-07-04T04:13:03;21.30;1.00
123;DHT22;57;48.948;9.098;2022-07-04T04:15:29;21.40;1.00
123;DHT22;57;48.948;9.098;2022-07-04T04:17:54;21.70;1.00
123;DHT22;57;48.948;9.098;2022-07-04T04:20:20;21.60;1.00
123;DHT22;57;48.948;9.098;2022-07-04T04:22:46;21.90;1.00
123;DHT22;57;48.948;9.098;2022-07-04T04:25:12;22.20;1.00
123;DHT22;57;48.948;9.098;2022-07-04T04:27:37;22.30;1.00
123;DHT22;57;48.948;9.098;2022-07-04T04:30:06;23.10;1.00
123;DHT22;57;48.948;9.098;2022-07-04T04:32:35;23.50;1.00
123;DHT22;57;48.948;9.098;2022-07-04T04:35:01;23.80;1.00
123;DHT22;57;48.948;9.098;2022-07-04T04:37:28;24.10;99.90
123;DHT22;57;48.948;9.098;2022-07-04T04:39:54;24.70;99.90
123;DHT22;57;48.948;9.098;2022-07-04T04:42:20;25.20;99.90
123;DHT22;57;48.948;9.098;2022-07-04T04:44:45;26.00;99.90
123;DHT22;57;48.948;9.098;2022-07-04T04:47:13;26.60;99.90
123;DHT22;57;48.948;9.098;2022-07-04T04:49:38;27.00;99.90
123;DHT22;57;48.948;9.098;2022-07-04T04:52:04;26.60;99.90
123;DHT22;57;48.948;9.098;2022-07-04T04:54:30;25.80;99.90
123;DHT22;57;48.948;9.098;2022-07-04T04:56:56;25.00;99.90
123;DHT22;57;48.948;9.098;2022-07-04T04:59:22;25.00;99.90
123;DHT22;57;48.948;9.098;2022-07-04T05:01:47;24.20;99.90
123;DHT22;57;48.948;9.098;2022-07-04T05:04:17;23.90;99.90
123;DHT22;57;48.948;9.098;2022-07-04T05:06:43;24.10;99.90
123;DHT22;57;48.948;9.098;2022-07-04T05:09:11;24.60;99.90
123;DHT22;57;48.948;9.098;2022-07-04T05:11:37;25.10;99.90
123;DHT22;57;48.948;9.098;2022-07-04T05:14:03;25.10;99.90
123;DHT22;57;48.948;9.098;2022-07-04T05:16:29;25.50;99.90
123;DHT22;57;48.948;9.098;2022-07-04T05:18:54;26.40;99.90
123;DHT22;57;48.948;9.098;2022-07-04T05:21:22;26.50;99.90
123;DHT22;57;48.948;9.098;2022-07-04T05:23:48;26.30;99.90
123;DHT22;57;48.948;9.098;2022-07-04T05:26:14;26.50;99.90
123;DHT22;57;48.948;9.098;2022-07-04T05:28:40;27.30;99.90
123;DHT22;57;48.948;9.098;2022-07-04T05:31:05;27.60;99.90
123;DHT22;57;48.948;9.098;2022-07-04T05:33:31;28.50;99.90
123;DHT22;57;48.948;9.098;2022-07-04T05:35:59;28.60;99.90
123;DHT22;57;48.948;9.098;2022-07-04T05:38:26;30.00;99.90
123;DHT22;57;48.948;9.098;2022-07-04T05:40:52;31.30;99.90
123;DHT22;57;48.948;9.098;2022-07-04T05:43:25;31.70;99.90
123;DHT22;57;48.948;9.098;2022-07-04T05:45:51;32.20;99.90
123;DHT22;57;48.948;9.098;2022-07-04T05:48:17;31.30;99.90
123;DHT22;57;48.948;9.098;2022-07-04T05:50:43;31.50;99.90
123;DHT22;57;48.948;9.098;2022-07-04T05:53:09;32.20;99.90
123;DHT22;57;48.948;9.098;2022-07-04T05:55:36;32.20;99.90
123;DHT22;57;48.948;9.098;2022-07-04T05:58:02;32.20;99.90
123;DHT22;57;48.948;9.098;2022-07-04T06:00:28;32.20;99.90
123;DHT22;57;48.948;9.098;2022-07-04T06:02:53;32.70;99.90
123;DHT22;57;48.948;9.098;2022-07-04T06:05:19;32.40;99.90
123;DHT22;57;48.948;9.098;2022-07-04T06:07:45;32.40;99.90
123;DHT22;57;48.948;9.098;2022-07-04T06:10:11;32.30;99.90
123;DHT22;57;48.948;9.098;2022-07-04T06:12:38;31.30;99.90
123;DHT22;57;48.948;9.098;2022-07-04T06:15:05;30.60;99.90
123;DHT22;57;48.948;9.098;2022-07-04T06:17:31;29.80;99.90
123;DHT22;57;48.948;9.098;2022-07-04T06:19:56;29.20;99.90
123;DHT22;57;48.948;9.098;2022-07-04T06:22:22;29.10;99.90
123;DHT22;57;48.948;9.098;2022-07-04T06:24:48;29.10;99.90
123;DHT22;57;48.948;9.098;2022-07-04T06:27:14;29.00;99.90
123;DHT22;57;48.948;9.098;2022-07-04T06:29:41;28.40;99.90
123;DHT22;57;48.948;9.098;2022-07-04T06:32:07;27.80;99.90
123;DHT22;57;48.948;9.098;2022-07-04T06:34:33;27.60;99.90
123;DHT22;57;48.948;9.098;2022-07-04T06:36:58;27.70;99.90
123;DHT22;57;48.948;9.098;2022-07-04T06:39:24;27.50;99.90
123;DHT22;57;48.948;9.098;2022-07-04T06:41:50;27.40;99.90
123;DHT22;57;48.948;9.098;2022-07-04T06:44:16;27.80;99.90
123;DHT22;57;48.948;9.098;2022-07-04T06:46:44;28.10;99.90
123;DHT22;57;48.948;9.098;2022-07-04T06:49:10;28.10;99.90
123;DHT22;57;48.948;9.098;2022-07-04T06:51:36;28.10;99.90
123;DHT22;57;48.948;9.098;2022-07-04T06:54:01;27.70;99.90
123;DHT22;57;48.948;9.098;2022-07-04T06:56:27;28.10;99.90
123;DHT22;57;48.948;9.098;2022-07-04T06:58:53;28.10;99.90
123;DHT22;57;48.948;9.098;2022-07-04T07:01:19;28.60;99.90
123;DHT22;57;48.948;9.098;2022-07-04T07:03:46;29.10;99.90
123;DHT22;57;48.948;9.098;2022-07-04T07:06:11;28.70;99.90
123;DHT22;57;48.948;9.098;2022-07-04T07:08:37;28.10;99.90
123;DHT22;57;48.948;9.098;2022-07-04T07:11:03;28.10;99.90
123;DHT22;57;48.948;9.098;2022-07-04T07:13:29;28.00;99.90
123;DHT22;57;48.948;9.098;2022-07-04T07:15:55;28.10;99.90
123;DHT22;57;48.948;9.098;2022-07-04T07:18:21;28.20;99.90
123;DHT22;57;48.948;9.098;2022-07-04T07:20:48;28.00;99.90
123;DHT22;57;48.948;9.098;2022-07-04T07:23:14;27.90;99.90
123;DHT22;57;48.948;9.098;2022-07-04T07:25:39;27.90;99.90
123;DHT22;57;48.948;9.098;2022-07-04T07:28:05;27.90;99.90
123;DHT22;57;48.948;9.098;2022-07-04T07:30:31;27.70;99.90
123;DHT22;57;48.948;9.098;2022-07-04T07:32:57;27.20;99.90
123;DHT22;57;48.948;9.098;2022-07-04T07:35:23;27.00;99.90
123;DHT22;57;48.948;9.098;2022-07-04T07:37:50;26.90;99.90
123;DHT22;57;48.948;9.098;2022-07-04T07:40:16;26.50;99.90
123;DHT22;57;48.948;9.098;2022-07-04T07:42:43;26.10;99.90
123;DHT22;57;48.948;9.098;2022-07-04T07:45:09;25.80;99.90
123;DHT22;57;48.948;9.098;2022-07-04T07:47:35;25.60;99.90
123;DHT22;57;48.948;9.098;2022-07-04T07:50:03;25.80;99.90
123;DHT22;57;48.948;9.098;2022-07-04T07:52:29;26.10;99.90
123;DHT22;57;48.948;9.098;2022-07-04T07:54:56;26.10;99.90
123;DHT22;57;48.948;9.098;2022-07-04T07:57:22;25.90;99.90
123;DHT22;57;48.948;9.098;2022-07-04T07:59:47;25.90;99.90
123;DHT22;57;48.948;9.098;2022-07-04T08:02:13;26.40;99.90
123;DHT22;57;48.948;9.098;2022-07-04T08:04:39;26.30;99.90
123;DHT22;57;48.948;9.098;2022-07-04T08:07:06;26.50;99.90
123;DHT22;57;48.948;9.098;2022-07-04T08:09:33;26.60;99.90
123;DHT22;57;48.948;9.098;2022-07-04T08:12:02;26.60;99.90
123;DHT22;57;48.948;9.098;2022-07-04T08:14:29;26.50;99.90
123;DHT22;57;48.948;9.098;2022-07-04T08:16:55;26.50;99.90
123;DHT22;57;48.948;9.098;2022-07-04T08:19:20;26.40;99.90
123;DHT22;57;48.948;9.098;2022-07-04T08:21:46;26.40;99.90
123;DHT22;57;48.948;9.098;2022-07-04T08:24:12;26.20;99.90
123;DHT22;57;48.948;9.098;2022-07-04T08:26:38;26.50;99.90
123;DHT22;57;48.948;9.098;2022-07-04T08:29:05;26.70;99.90
123;DHT22;57;48.948;9.098;2022-07-04T08:31:31;27.00;99.90
123;DHT22;57;48.948;9.098;2022-07-04T08:33:57;26.80;99.90
123;DHT22;57;48.948;9.098;2022-07-04T08:36:23;26.80;99.90
123;DHT22;57;48.948;9.098;2022-07-04T08:38:49;26.80;99.90
123;DHT22;57;48.948;9.098;2022-07-04T08:41:17;26.80;99.90
123;DHT22;57;48.948;9.098;2022-07-04T08:43:45;26.80;99.90
123;DHT22;57;48.948;9.098;2022-07-04T08:46:16;26.80;99.90
123;DHT22;57;48.948;9.098;2022-07-04T08:48:43;26.80;99.90
123;DHT22;57;48.948;9.098;2022-07-04T08:51:16;26.60;99.90
123;DHT22;57;48.948;9.098;2022-07-04T08:53:48;26.70;99.90
123;DHT22;57;48.948;9.098;2022-07-04T08:56:15;26.80;99.90
123;DHT22;57;48.948;9.098;2022-07-04T08:58:42;27.20;99.90
123;DHT22;57;48.948;9.098;2022-07-04T09:01:10;27.60;99.90
123;DHT22;57;48.948;9.098;2022-07-04T09:03:37;27.80;99.90
123;DHT22;57;48.948;9.098;2022-07-04T09:06:03;28.10;99.90
123;DHT22;57;48.948;9.098;2022-07-04T09:08:28;27.70;99.90
123;DHT22;57;48.948;9.098;2022-07-04T09:10:54;28.10;99.90
123;DHT22;57;48.948;9.098;2022-07-04T09:13:21;28.00;99.90
123;DHT22;57;48.948;9.098;2022-07-04T09:15:48;27.80;99.90
123;DHT22;57;48.948;9.098;2022-07-04T09:18:24;27.80;99.90
123;DHT22;57;48.948;9.098;2022-07-04T09:20:52;28.10;99.90
123;DHT22;57;48.948;9.098;2022-07-04T09:23:20;28.30;99.90
123;DHT22;57;48.948;9.098;2022-07-04T09:25:47;28.20;99.90
123;DHT22;57;48.948;9.098;2022-07-04T09:28:26;28.50;99.90
123;DHT22;57;48.948;9.098;2022-07-04T09:30:51;28.60;99.90
123;DHT22;57;48.948;9.098;2022-07-04T09:33:17;28.50;99.90
123;DHT22;57;48.948;9.098;2022-07-04T09:35:43;28.40;99.90
123;DHT22;57;48.948;9.098;2022-07-04T09:38:11;28.20;99.90
123;DHT22;57;48.948;9.098;2022-07-04T09:40:38;28.30;99.90
123;DHT22;57;48.948;9.098;2022-07-04T09:43:12;28.10;99.90
123;DHT22;57;48.948;9.098;2022-07-04T09:45:53;28.00;99.90
123;DHT22;57;48.948;9.098;2022-07-04T09:48:20;27.80;99.90
123;DHT22;57;48.948;9.098;2022-07-04T09:50:46;27.90;99.90
123;DHT22;57;48.948;9.098;2022-07-04T09:53:13;28.00;99.90
123;DHT22;57;48.948;9.098;2022-07-04T09:55:39;28.10;99.90
123;DHT22;57;48.948;9.098;2022-07-04T09:58:09;28.00;99.90
123;DHT22;57;48.948;9.098;2022-07-04T10:00:37;27.30;99.90
123;DHT22;57;48.948;9.098;2022-07-04T10:03:17;27.50;99.90
123;DHT22;57;48.948;9.098;2022-07-04T10:05:46;27.90;99.90
123;DHT22;57;48.948;9.098;2022-07-04T10:08:13;27.90;99.90
123;DHT22;57;48.948;9.098;2022-07-04T10:10:40;27.80;99.90
123;DHT22;57;48.948;9.098;2022-07-04T10:13:07;28.10;99.90
123;DHT22;57;48.948;9.098;2022-07-04T10:15:37;28.30;99.90
123;DHT22;57;48.948;9.098;2022-07-04T10:18:04;28.10;99.90
123;DHT22;57;48.948;9.098;2022-07-04T10:20:30;27.80;99.90
123;DHT22;57;48.948;9.098;2022-07-04T10:22:56;28.00;99.90
123;DHT22;57;48.948;9.098;2022-07-04T10:25:23;27.80;99.90
123;DHT22;57;48.948;9.098;2022-07-04T10:27:49;28.20;99.90
123;DHT22;57;48.948;9.098;2022-07-04T10:30:16;28.50;99.90
123;DHT22;57;48.948;9.098;2022-07-04T10:32:46;29.00;99.90
123;DHT22;57;48.948;9.098;2022-07-04T10:35:13;28.70;99.90
123;DHT22;57;48.948;9.098;2022-07-04T10:38:01;28.80;99.90
123;DHT22;57;48.948;9.098;2022-07-04T10:40:47;28.60;99.90
123;DHT22;57;48.948;9.098;2022-07-04T10:43:37;28.60;99.90
123;DHT22;57;48.948;9.098;2022-07-04T10:46:26;28.70;99.90
123;DHT22;57;48.948;9.098;2022-07-04T10:48:54;29.40;99.90
123;DHT22;57;48.948;9.098;2022-07-04T10:51:37;29.10;99.90
123;DHT22;57;48.948;9.098;2022-07-04T10:54:05;28.90;99.90
123;DHT22;57;48.948;9.098;2022-07-04T10:56:38;29.30;99.90
123;DHT22;57;48.948;9.098;2022-07-04T10:59:08;29.50;99.90
123;DHT22;57;48.948;9.098;2022-07-04T11:01:38;29.30;99.90
123;DHT22;57;48.948;9.098;2022-07-04T11:04:04;29.30;99.90
123;DHT22;57;48.948;9.098;2022-07-04T11:06:49;29.00;99.90
123;DHT22;57;48.948;9.098;2022-07-04T11:09:15;29.60;99.90
123;DHT22;57;48.948;9.098;2022-07-04T11:11:55;30.00;99.90
123;DHT22;57;48.948;9.098;2022-07-04T11:14:35;30.00;99.90
123;DHT22;57;48.948;9.098;2022-07-04T11:17:01;30.00;99.90
123;DHT22;57;48.948;9.098;2022-07-04T11:19:27;29.90;99.90
123;DHT22;57;48.948;9.098;2022-07-04T11:21:54;30.10;99.90
123;DHT22;57;48.948;9.098;2022-07-04T11:24:20;29.90;99.90
123;DHT22;57;48.948;9.098;2022-07-04T11:26:47;30.40;99.90
123;DHT22;57;48.948;9.098;2022-07-04T11:29:13;30.60;99.90
123;DHT22;57;48.948;9.098;2022-07-04T11:31:40;30.40;99.90
123;DHT22;57;48.948;9.098;2022-07-04T11:34:06;30.30;99.90
123;DHT22;57;48.948;9.098;2022-07-04T11:36:33;30.10;99.90
123;DHT22;57;48.948;9.098;2022-07-04T11:39:00;30.00;99.90
123;DHT22;57;48.948;9.098;2022-07-04T11:41:28;30.00;99.90
123;DHT22;57;48.948;9.098;2022-07-04T11:43:56;30.20;99.90
123;DHT22;57;48.948;9.098;2022-07-04T11:46:21;30.20;99.90
123;DHT22;57;48.948;9.098;2022-07-04T11:48:47;30.30;99.90
123;DHT22;57;48.948;9.098;2022-07-04T11:51:16;30.70;99.90
123;DHT22;57;48.948;9.098;2022-07-04T11:53:42;30.20;99.90
123;DHT22;57;48.948;9.098;2022-07-04T11:56:08;30.20;99.90
123;DHT22;57;48.948;9.098;2022-07-04T11:58:39;30.30;99.90
123;DHT22;57;48.948;9.098;2022-07-04T12:01:06;30.70;99.90
123;DHT22;57;48.948;9.098;2022-07-04T12:03:32;30.90;99.90
123;DHT22;57;48.948;9.098;2022-07-04T12:06:01;30.70;99.90
123;DHT22;57;48.948;9.098;2022-07-04T12:08:27;30.20;99.90
123;DHT22;57;48.948;9.098;2022-07-04T12:10:53;30.30;99.90
123;DHT22;57;48.948;9.098;2022-07-04T12:13:20;30.30;99.90
123;DHT22;57;48.948;9.098;2022-07-04T12:15:47;30.50;99.90
123;DHT22;57;48.948;9.098;2022-07-04T12:18:19;30.60;99.90
123;DHT22;57;48.948;9.098;2022-07-04T12:20:45;30.10;99.90
123;DHT22;57;48.948;9.098;2022-07-04T12:23:11;29.90;99.90
123;DHT22;57;48.948;9.098;2022-07-04T12:25:38;29.90;99.90
123;DHT22;57;48.948;9.098;2022-07-04T12:28:05;29.90;99.90
123;DHT22;57;48.948;9.098;2022-07-04T12:30:33;29.90;99.90
123;DHT22;57;48.948;9.098;2022-07-04T12:33:00;30.00;99.90
123;DHT22;57;48.948;9.098;2022-07-04T12:35:43;29.80;99.90
123;DHT22;57;48.948;9.098;2022-07-04T12:38:10;29.70;99.90
123;DHT22;57;48.948;9.098;2022-07-04T12:40:48;29.90;99.90
123;DHT22;57;48.948;9.098;2022-07-04T12:43:14;30.20;99.90
123;DHT22;57;48.948;9.098;2022-07-04T12:45:45;30.40;99.90
123;DHT22;57;48.948;9.098;2022-07-04T12:48:20;30.20;99.90
123;DHT22;57;48.948;9.098;2022-07-04T12:50:47;29.70;99.90
123;DHT22;57;48.948;9.098;2022-07-04T12:53:13;30.00;99.90
123;DHT22;57;48.948;9.098;2022-07-04T12:55:41;29.50;99.90
123;DHT22;57;48.948;9.098;2022-07-04T12:58:10;29.50;99.90
123;DHT22;57;48.948;9.098;2022-07-04T13:00:36;29.70;99.90
123;DHT22;57;48.948;9.098;2022-07-04T13:03:03;30.30;99.90
123;DHT22;57;48.948;9.098;2022-07-04T13:05:28;30.60;99.90
123;DHT22;57;48.948;9.098;2022-07-04T13:07:56;30.00;99.90
123;DHT22;57;48.948;9.098;2022-07-04T13:10:22;29.60;99.90
123;DHT22;57;48.948;9.098;2022-07-04T13:12:47;29.70;99.90
123;DHT22;57;48.948;9.098;2022-07-04T13:15:13;29.40;99.90
123;DHT22;57;48.948;9.098;2022-07-04T13:17:39;29.30;99.90
123;DHT22;57;48.948;9.098;2022-07-04T13:20:06;29.20;99.90
123;DHT22;57;48.948;9.098;2022-07-04T13:22:32;29.80;99.90
123;DHT22;57;48.948;9.098;2022-07-04T13:24:59;30.20;99.90
123;DHT22;57;48.948;9.098;2022-07-04T13:27:25;29.60;99.90
123;DHT22;57;48.948;9.098;2022-07-04T13:29:50;29.00;99.90
123;DHT22;57;48.948;9.098;2022-07-04T13:32:16;29.00;99.90
123;DHT22;57;48.948;9.098;2022-07-04T13:34:42;29.00;99.90
123;DHT22;57;48.948;9.098;2022-07-04T13:37:08;29.30;99.90
123;DHT22;57;48.948;9.098;2022-07-04T13:39:33;29.10;99.90
123;DHT22;57;48.948;9.098;2022-07-04T13:42:01;29.20;99.90
123;DHT22;57;48.948;9.098;2022-07-04T13:44:27;28.80;99.90
123;DHT22;57;48.948;9.098;2022-07-04T13:46:53;28.90;99.90
123;DHT22;57;48.948;9.098;2022-07-04T13:49:19;29.10;99.90
123;DHT22;57;48.948;9.098;2022-07-04T13:51:46;29.50;99.90
123;DHT22;57;48.948;9.098;2022-07-04T13:54:11;29.90;99.90
123;DHT22;57;48.948;9.098;2022-07-04T13:56:37;30.00;99.90
123;DHT22;57;48.948;9.098;2022-07-04T13:59:04;30.20;99.90
123;DHT22;57;48.948;9.098;2022-07-04T14:01:31;30.70;99.90
123;DHT22;57;48.948;9.098;2022-07-04T14:03:57;30.60;99.90
123;DHT22;57;48.948;9.098;2022-07-04T14:06:23;29.80;99.90
123;DHT22;57;48.948;9.098;2022-07-04T14:08:49;29.70;99.90
123;DHT22;57;48.948;9.098;2022-07-04T14:11:14;29.90;99.90
123;DHT22;57;48.948;9.098;2022-07-04T14:13:40;29.80;99.90
123;DHT22;57;48.948;9.098;2022-07-04T14:16:07;30.00;99.90
123;DHT22;57;48.948;9.098;2022-07-04T14:18:33;29.90;99.90
123;DHT22;57;48.948;9.098;2022-07-04T14:20:59;29.70;99.90
123;DHT22;57;48.948;9.098;2022-07-04T14:23:25;29.40;99.90
123;DHT22;57;48.948;9.098;2022-07-04T14:25:50;29.30;99.90
123;DHT22;57;48.948;9.098;2022-07-04T14:28:16;29.60;99.90
123;DHT22;57;48.948;9.098;2022-07-04T14:30:42;29.20;99.90
123;DHT22;57;48.948;9.098;2022-07-04T14:33:09;29.30;99.90
123;DHT22;57;48.948;9.098;2022-07-04T14:35:35;29.50;99.90
123;DHT22;57;48.948;9.098;2022-07-04T14:38:00;29.60;99.90
123;DHT22;57;48.948;9.098;2022-07-04T14:40:26;29.90;99.90
123;DHT22;57;48.948;9.098;2022-07-04T14:42:52;30.10;99.90
123;DHT22;57;48.948;9.098;2022-07-04T14:45:18;30.90;99.90
123;DHT22;57;48.948;9.098;2022-07-04T14:47:44;31.60;99.90
123;DHT22;57;48.948;9.098;2022-07-04T14:50:11;32.30;99.90
123;DHT22;57;48.948;9.098;2022-07-04T14:52:36;32.30;99.90
123;DHT22;57;48.948;9.098;2022-07-04T14:55:03;32.10;99.90
123;DHT22;57;48.948;9.098;2022-07-04T14:57:28;31.70;99.90
123;DHT22;57;48.948;9.098;2022-07-04T14:59:54;31.50;99.90
123;DHT22;57;48.948;9.098;2022-07-04T15:02:20;31.50;99.90
123;DHT22;57;48.948;9.098;2022-07-04T15:04:45;31.30;99.90
123;DHT22;57;48.948;9.098;2022-07-04T15:07:13;31.20;99.90
123;DHT22;57;48.948;9.098;2022-07-04T15:09:38;31.30;99.90
123;DHT22;57;48.948;9.098;2022-07-04T15:12:04;30.50;99.90
123;DHT22;57;48.948;9.098;2022-07-04T15:14:30;30.40;99.90
123;DHT22;57;48.948;9.098;2022-07-04T15:16:56;30.60;99.90
123;DHT22;57;48.948;9.098;2022-07-04T15:19:21;30.30;99.90
123;DHT22;57;48.948;9.098;2022-07-04T15:21:47;30.70;99.90
123;DHT22;57;48.948;9.098;2022-07-04T15:24:17;31.40;99.90
123;DHT22;57;48.948;9.098;2022-07-04T15:26:44;31.80;99.90
123;DHT22;57;48.948;9.098;2022-07-04T15:29:10;31.60;99.90
123;DHT22;57;48.948;9.098;2022-07-04T15:31:36;31.30;99.90
123;DHT22;57;48.948;9.098;2022-07-04T15:34:02;30.90;99.90
123;DHT22;57;48.948;9.098;2022-07-04T15:36:27;31.00;99.90
123;DHT22;57;48.948;9.098;2022-07-04T15:38:53;31.10;99.90
123;DHT22;57;48.948;9.098;2022-07-04T15:41:21;30.70;99.90
123;DHT22;57;48.948;9.098;2022-07-04T15:43:47;30.50;99.90
123;DHT22;57;48.948;9.098;2022-07-04T15:46:14;30.40;99.90
123;DHT22;57;48.948;9.098;2022-07-04T15:48:42;30.30;99.90
123;DHT22;57;48.948;9.098;2022-07-04T15:51:12;30.40;99.90
123;DHT22;57;48.948;9.098;2022-07-04T15:53:38;31.10;99.90
123;DHT22;57;48.948;9.098;2022-07-04T15:56:03;31.40;99.90
123;DHT22;57;48.948;9.098;2022-07-04T15:58:31;31.30;99.90
123;DHT22;57;48.948;9.098;2022-07-04T16:00:56;31.20;99.90
123;DHT22;57;48.948;9.098;2022-07-04T16:03:22;31.40;99.90
123;DHT22;57;48.948;9.098;2022-07-04T16:06:03;31.80;99.90
123;DHT22;57;48.948;9.098;2022-07-04T16:08:29;32.20;99.90
123;DHT22;57;48.948;9.098;2022-07-04T16:10:57;32.30;99.90
123;DHT22;57;48.948;9.098;2022-07-04T16:13:23;31.80;99.90
123;DHT22;57;48.948;9.098;2022-07-04T16:15:50;31.40;99.90
123;DHT22;57;48.948;9.098;2022-07-04T16:18:16;31.00;99.90
123;DHT22;57;48.948;9.098;2022-07-04T16:20:42;30.80;99.90
123;DHT22;57;48.948;9.098;2022-07-04T16:23:07;31.30;99.90
123;DHT22;57;48.948;9.098;2022-07-04T16:25:33;31.60;99.90
123;DHT22;57;48.948;9.098;2022-07-04T16:27:59;32.00;99.90
123;DHT22;57;48.948;9.098;2022-07-04T16:30:25;32.70;99.90
123;DHT22;57;48.948;9.098;2022-07-04T16:32:52;32.90;99.90
123;DHT22;57;48.948;9.098;2022-07-04T16:35:17;33.50;99.90
123;DHT22;57;48.948;9.098;2022-07-04T16:37:43;33.10;99.90
123;DHT22;57;48.948;9.098;2022-07-04T16:40:09;32.90;99.90
123;DHT22;57;48.948;9.098;2022-07-04T16:42:35;32.70;99.90
123;DHT22;57;48.948;9.098;2022-07-04T16:45:01;32.70;99.90
123;DHT22;57;48.948;9.098;2022-07-04T16:47:27;32.50;99.90
123;DHT22;57;48.948;9.098;2022-07-04T16:49:54;32.80;99.90
123;DHT22;57;48.948;9.098;2022-07-04T16:52:20;32.00;99.90
123;DHT22;57;48.948;9.098;2022-07-04T16:54:45;32.10;99.90